Norfolk, NE (68701)

00:06 CDT le 23 octobre 2014 (GMT -0500)
West Central - Norfolk | Change Station
CLOSE
Current Station
Stations météorologiques personnelles
Location: Norfolk, NE
Altitude: 1640 ft
Stations météo à proximité

Alt. 1640 ft 42.04 °N, 97.45 °W | Updated 1 minute ago

Couvert
Couvert
55.6 ° F
Paraît 55.6 ° F
N
0.0
Vent Variable Vent de NNE
Gusts 0.0 mph

Aujourd'hui
Haut(e) -- | Bas -- ° F
--% Risque de précip.
Hier
Haut(e) -- | Bas -- ° F
Precip. -- pouce
7:51 AM 6:35 PM
Lune descendante, 1% visible
Pression 30.02 pouce
Visibilité 10.0 Miles terrestres
Nuages Couvert 2900 ft
Point de rosée 54 ° F
Humidité 94%
Précipitations 0.00 pouce
Profondeur de la couche neigeuse Non disponible.
UV 0 sur 12
Pollen 1.60 sur 12
Qualité de l'air Non disponible.
Flu Activity Sporadic
METAR KOFK 230456Z AUTO 00000KT 10SM OVC029 13/12 A3003 RMK AO2 RAB02E11 SLP164 P0000 T01330122

More Conditions Fewer Conditions

Pression 30.02 pouce
Visibilité 10.0 Miles terrestres
Nuages Couvert 2900 ft
Point de rosée 54 ° F
Humidité 94%
Précipitations 0.00 pouce
Profondeur de la couche neigeuse Non disponible.
UV 0 sur 12
Pollen 1.60 sur 12
Qualité de l'air Non disponible.
Flu Activity Sporadic
METAR KOFK 230456Z AUTO 00000KT 10SM OVC029 13/12 A3003 RMK AO2 RAB02E11 SLP164 P0000 T01330122

More Conditions Fewer Conditions

10-Day Weather Forecast

Almanac

Astronomie

Oct. 23, 2014 Lever Coucher
Temps réel 07:51 CDT 18:35 CDT
Crépuscule civil 07:23 CDT 19:04 CDT
Crépuscule nautique 06:50 CDT 19:36 CDT
Crépuscule astronomique 06:18 CDT 20:09 CDT
Lune 07:32 CDT 18:38 CDT
Durée de lumière visible 11h 41m
Longueur du jour
10h 44m
Tomorrow will be 2m 38s shorter.
Lune descendante, 1% of the Moon is Illuminated
Aujourd'hui
Lune descendante
Oct 23
Nouveau
Oct 30
Premier quartier
Nov 6
Pleine lune
Nov 14
Dernier quartier

Extrêmes aujourd'hui

State Highs State Lows

Community

WunderPhotos

Upload Photos

1,764,169 Photos téléchargées !

Nearby

Épaisseur de neige

Station Depth Altitude
Pas de nouvelles chutes de neige

Activité sismique

Ville Distance Mag. Time & Date
No recent earthquake activity has been reported nearby.
Minimum magnitude displayed is 2.5.

Températures des eaux côtières

Lieu Température
Aucun rapport de station

Stations météo à proximité